Time;durP1;ratioP1;P1;durP2;ratioP2;P2;SDS_P1;SDS_P2;PMS_P1;PMS_P2;Temp;Humidity;BMP_temperature;BMP_pressure;BME280_temperature;BME280_humidity;BME280_pressure;Samples;Min_cycle;Max_cycle;Signal;HPM_P1;HPM_P2
2023/12/24 00:01:48;;;;;;;5.47;1.73;;;10.00;99.90;;;;;;5075474;28;20202;-74
2023/12/24 00:04:13;;;;;;;6.00;1.40;;;10.10;99.90;;;;;;5076028;28;20167;-77
2023/12/24 00:06:39;;;;;;;5.93;1.80;;;10.00;99.90;;;;;;5044920;28;20637;-76
2023/12/24 00:09:04;;;;;;;6.30;1.67;;;10.10;99.90;;;;;;5055765;28;20658;-76
2023/12/24 00:11:31;;;;;;;4.77;1.43;;;10.20;99.90;;;;;;5055895;28;20199;-74
2023/12/24 00:13:56;;;;;;;7.77;2.00;;;10.10;99.90;;;;;;5055422;28;20596;-76
2023/12/24 00:16:22;;;;;;;5.20;1.60;;;10.20;99.90;;;;;;5062961;28;20202;-77
2023/12/24 00:18:47;;;;;;;8.80;1.93;;;10.20;99.90;;;;;;5057315;28;20175;-77
2023/12/24 00:21:13;;;;;;;4.60;1.40;;;10.20;99.90;;;;;;5075149;28;20204;-76
2023/12/24 00:23:39;;;;;;;4.73;1.43;;;10.20;99.90;;;;;;5075211;28;20171;-77
2023/12/24 00:26:04;;;;;;;4.97;1.60;;;10.30;99.90;;;;;;5072812;28;20175;-76
2023/12/24 00:28:30;;;;;;;3.97;1.47;;;10.30;99.90;;;;;;5057528;28;20518;-76
2023/12/24 00:30:55;;;;;;;4.30;1.27;;;10.30;99.90;;;;;;5056878;28;20203;-75
2023/12/24 00:33:21;;;;;;;4.90;1.60;;;10.20;99.90;;;;;;5070831;28;20195;-76
2023/12/24 00:35:47;;;;;;;5.67;1.90;;;10.30;99.90;;;;;;5073170;28;20191;-77
2023/12/24 00:38:13;;;;;;;7.27;1.50;;;10.30;99.90;;;;;;5074146;28;20266;-76
2023/12/24 00:40:39;;;;;;;6.60;1.47;;;10.30;99.90;;;;;;5073965;28;20226;-76
2023/12/24 00:43:05;;;;;;;8.37;2.03;;;10.30;99.90;;;;;;5071621;28;20187;-76
2023/12/24 00:45:31;;;;;;;6.73;1.57;;;10.30;99.90;;;;;;5073629;28;20171;-77
2023/12/24 00:47:57;;;;;;;4.03;1.57;;;10.40;99.90;;;;;;5073714;28;20167;-75
2023/12/24 00:50:22;;;;;;;5.37;1.50;;;10.30;99.90;;;;;;5073024;28;20286;-76
2023/12/24 00:52:48;;;;;;;6.63;1.60;;;10.40;99.90;;;;;;5072707;28;20244;-76
2023/12/24 00:55:13;;;;;;;4.17;1.67;;;10.30;99.90;;;;;;5073538;28;20186;-77
2023/12/24 00:57:39;;;;;;;5.03;1.67;;;10.30;99.90;;;;;;5073489;28;20228;-76
2023/12/24 01:00:05;;;;;;;5.60;1.50;;;10.30;99.90;;;;;;5073384;28;20236;-76
2023/12/24 01:02:31;;;;;;;6.30;1.70;;;10.40;99.90;;;;;;5055290;28;20281;-76
2023/12/24 01:04:56;;;;;;;4.90;1.67;;;10.40;99.90;;;;;;5062090;28;20183;-76
2023/12/24 01:07:22;;;;;;;5.90;1.57;;;10.40;99.90;;;;;;5049480;28;20187;-76
2023/12/24 01:09:48;;;;;;;8.50;2.20;;;10.40;99.90;;;;;;5072306;28;20178;-76
2023/12/24 01:12:13;;;;;;;8.57;1.93;;;10.40;99.90;;;;;;5055073;28;20218;-76
2023/12/24 01:14:39;;;;;;;4.27;1.60;;;10.40;99.90;;;;;;5073220;28;20603;-77
2023/12/24 01:17:04;;;;;;;7.07;1.73;;;10.40;99.90;;;;;;5073175;28;20659;-77
2023/12/24 01:19:31;;;;;;;9.43;1.80;;;10.40;99.90;;;;;;5071999;28;20658;-76
2023/12/24 01:21:56;;;;;;;5.40;1.63;;;10.40;99.90;;;;;;5073462;28;20226;-77
2023/12/24 01:24:22;;;;;;;4.90;1.53;;;10.40;99.90;;;;;;5055097;28;20210;-77
2023/12/24 01:26:47;;;;;;;4.53;1.30;;;10.40;99.90;;;;;;5073102;28;20178;-76
2023/12/24 01:29:13;;;;;;;3.17;1.13;;;10.30;99.90;;;;;;5071848;28;20186;-76
2023/12/24 01:33:29;;;;;;;3.90;1.37;;;10.20;99.90;;;;;;5105967;27;1500013;-75
2023/12/24 01:35:55;;;;;;;5.73;1.80;;;10.20;99.90;;;;;;5129126;28;20185;-75
2023/12/24 01:38:20;;;;;;;6.43;1.27;;;10.20;99.90;;;;;;5123886;27;20181;-75
2023/12/24 01:40:46;;;;;;;5.57;1.40;;;10.10;99.90;;;;;;5103540;28;20665;-75
2023/12/24 01:43:12;;;;;;;8.47;1.60;;;10.10;99.90;;;;;;5089596;28;20617;-75
2023/12/24 01:45:37;;;;;;;5.17;1.57;;;10.10;99.90;;;;;;5088121;28;20204;-75
2023/12/24 01:48:03;;;;;;;5.30;1.57;;;10.20;99.90;;;;;;5089133;28;20223;-75
2023/12/24 01:50:29;;;;;;;9.43;1.60;;;10.30;99.90;;;;;;5109686;28;20712;-75
2023/12/24 01:52:55;;;;;;;3.03;1.13;;;10.30;99.90;;;;;;5109583;28;20566;-75
2023/12/24 01:55:20;;;;;;;5.37;1.30;;;10.30;99.90;;;;;;5108318;28;20182;-75
2023/12/24 01:57:46;;;;;;;7.43;1.57;;;10.30;99.90;;;;;;5109409;28;20243;-75
2023/12/24 02:00:12;;;;;;;4.17;1.13;;;10.30;99.90;;;;;;5109015;28;20186;-76
2023/12/24 02:02:38;;;;;;;6.80;1.83;;;10.40;99.90;;;;;;5108153;28;20178;-75
2023/12/24 02:05:04;;;;;;;5.60;1.33;;;10.30;99.90;;;;;;5109494;28;20616;-75
2023/12/24 02:07:34;;;;;;;4.53;1.10;;;10.30;99.90;;;;;;5109255;28;20202;-76
2023/12/24 02:10:00;;;;;;;3.37;1.00;;;10.40;99.90;;;;;;5107397;28;20184;-75
2023/12/24 02:12:25;;;;;;;4.80;0.90;;;10.40;99.90;;;;;;5108074;28;20288;-74
2023/12/24 02:14:51;;;;;;;4.60;1.10;;;10.40;99.90;;;;;;5109429;28;20162;-75
2023/12/24 02:17:17;;;;;;;6.33;1.17;;;10.40;99.90;;;;;;5108273;28;20189;-75
2023/12/24 02:19:43;;;;;;;4.27;1.13;;;10.40;99.90;;;;;;5109452;28;20174;-75
2023/12/24 02:22:08;;;;;;;5.03;1.40;;;10.40;99.90;;;;;;5109068;28;20739;-75
2023/12/24 02:24:34;;;;;;;6.87;1.10;;;10.30;99.90;;;;;;5109027;28;20174;-75
2023/12/24 02:27:32;;;;;;;6.37;1.27;;;10.30;99.90;;;;;;5108481;28;20185;-75
2023/12/24 02:30:05;;;;;;;4.13;1.00;;;10.30;99.90;;;;;;5109545;28;20248;-74
2023/12/24 02:32:34;;;;;;;4.27;1.07;;;10.30;99.90;;;;;;5108784;28;20240;-73
2023/12/24 02:35:02;;;;;;;3.27;1.00;;;10.30;99.90;;;;;;5108902;28;20177;-75
2023/12/24 02:37:29;;;;;;;3.73;1.30;;;10.20;99.90;;;;;;5108482;28;20274;-75
2023/12/24 02:39:54;;;;;;;7.20;1.17;;;10.30;99.90;;;;;;5109036;27;20235;-75
2023/12/24 02:42:20;;;;;;;4.30;1.10;;;10.30;99.90;;;;;;5108716;28;20688;-74
2023/12/24 02:44:45;;;;;;;4.37;0.93;;;10.30;99.90;;;;;;5095837;28;20681;-74
2023/12/24 02:47:11;;;;;;;6.23;1.10;;;10.20;99.90;;;;;;5094599;28;20186;-75
2023/12/24 02:49:36;;;;;;;4.20;1.00;;;10.20;99.90;;;;;;5095095;28;20166;-75
2023/12/24 02:52:02;;;;;;;6.83;1.10;;;10.10;99.90;;;;;;5095288;28;20293;-75
2023/12/24 02:54:27;;;;;;;2.40;1.00;;;10.10;99.90;;;;;;5095266;28;20171;-75
2023/12/24 02:56:53;;;;;;;1.50;0.63;;;10.10;99.90;;;;;;5094312;28;20189;-73
2023/12/24 02:59:18;;;;;;;7.73;1.03;;;9.90;99.90;;;;;;5094853;28;20177;-75
2023/12/24 03:01:44;;;;;;;3.50;1.20;;;9.90;99.90;;;;;;5093354;28;20198;-75
2023/12/24 03:04:10;;;;;;;3.43;0.87;;;9.90;99.90;;;;;;5094738;28;20176;-75
2023/12/24 03:06:35;;;;;;;2.67;0.90;;;9.80;99.90;;;;;;5092672;28;20179;-75
2023/12/24 03:09:01;;;;;;;1.40;0.90;;;9.80;99.90;;;;;;5094707;28;20182;-75
2023/12/24 03:11:27;;;;;;;3.97;1.33;;;9.70;99.90;;;;;;5094481;28;20571;-75
2023/12/24 03:13:52;;;;;;;4.10;0.93;;;9.70;99.90;;;;;;5094791;28;20227;-75
2023/12/24 03:16:18;;;;;;;2.57;1.00;;;9.70;99.90;;;;;;5092524;28;20182;-75
2023/12/24 03:18:43;;;;;;;3.83;1.00;;;9.70;99.90;;;;;;5094447;28;20581;-75
2023/12/24 03:21:09;;;;;;;2.37;1.03;;;9.70;99.90;;;;;;5094783;28;20186;-75
2023/12/24 03:23:34;;;;;;;2.10;0.80;;;9.60;99.90;;;;;;5094411;28;20170;-75
2023/12/24 03:26:00;;;;;;;0.90;0.73;;;9.60;99.90;;;;;;5092319;28;20178;-75
2023/12/24 03:28:25;;;;;;;1.97;0.87;;;9.60;99.90;;;;;;5092989;28;20208;-74
2023/12/24 03:30:51;;;;;;;2.03;0.87;;;9.60;99.90;;;;;;5092843;28;20194;-75
2023/12/24 03:33:16;;;;;;;3.17;0.80;;;9.60;99.90;;;;;;5092701;28;20208;-75
2023/12/24 03:35:43;;;;;;;0.60;0.60;;;9.60;99.90;;;;;;5093783;28;20364;-74
2023/12/24 03:38:09;;;;;;;0.70;0.60;;;9.60;99.90;;;;;;5093029;28;20592;-75
2023/12/24 03:40:34;;;;;;;1.17;0.67;;;9.60;99.90;;;;;;5093933;28;20199;-74
2023/12/24 03:43:00;;;;;;;0.60;0.50;;;9.60;99.90;;;;;;5092675;28;20170;-75
2023/12/24 03:45:25;;;;;;;2.30;0.70;;;9.60;99.90;;;;;;5093831;28;20174;-75
2023/12/24 03:47:51;;;;;;;1.50;0.80;;;9.60;99.90;;;;;;5094065;28;20178;-75
2023/12/24 03:50:16;;;;;;;0.60;0.43;;;9.60;99.90;;;;;;5093848;28;20636;-75
2023/12/24 03:52:42;;;;;;;0.37;0.30;;;9.70;99.90;;;;;;5092393;28;20205;-75
2023/12/24 03:55:08;;;;;;;0.40;0.40;;;9.70;99.90;;;;;;5091456;28;20170;-75
2023/12/24 03:57:34;;;;;;;0.93;0.60;;;9.70;99.90;;;;;;5091206;28;20178;-74
2023/12/24 03:59:59;;;;;;;1.50;0.50;;;9.70;99.90;;;;;;5093753;28;20182;-75
2023/12/24 04:02:25;;;;;;;0.70;0.40;;;9.70;99.90;;;;;;5092952;28;20290;-75
2023/12/24 04:04:50;;;;;;;1.27;0.50;;;9.70;99.90;;;;;;5093590;28;20174;-75
2023/12/24 04:07:16;;;;;;;0.47;0.40;;;9.70;99.90;;;;;;5091677;28;20186;-75
2023/12/24 04:09:42;;;;;;;2.93;0.40;;;9.70;99.90;;;;;;5092170;28;20178;-75
2023/12/24 04:12:08;;;;;;;1.03;0.40;;;9.70;99.90;;;;;;5093319;28;20198;-75
2023/12/24 04:14:37;;;;;;;0.53;0.40;;;9.80;99.90;;;;;;5093499;28;20250;-74
2023/12/24 04:17:03;;;;;;;0.30;0.30;;;9.80;99.90;;;;;;5093000;28;20170;-75
2023/12/24 04:19:29;;;;;;;1.20;0.60;;;9.80;99.90;;;;;;5093405;28;20170;-75
2023/12/24 04:21:54;;;;;;;0.30;0.30;;;9.80;99.90;;;;;;5091958;28;20569;-75
2023/12/24 04:24:20;;;;;;;0.93;0.70;;;9.80;99.90;;;;;;5091958;28;20216;-75
2023/12/24 04:26:45;;;;;;;1.37;0.53;;;9.80;99.90;;;;;;5092730;28;20182;-75
2023/12/24 04:29:11;;;;;;;1.60;0.70;;;9.80;99.90;;;;;;5093150;28;20185;-74
2023/12/24 04:31:40;;;;;;;2.10;0.40;;;9.80;99.90;;;;;;5092827;28;20209;-75
2023/12/24 04:34:09;;;;;;;1.17;0.37;;;9.80;99.90;;;;;;5091806;28;20657;-75
2023/12/24 04:36:35;;;;;;;0.90;0.60;;;9.80;99.90;;;;;;5091003;28;20253;-75
2023/12/24 04:39:02;;;;;;;0.70;0.57;;;9.80;99.90;;;;;;5092959;28;20633;-75
2023/12/24 04:41:28;;;;;;;0.40;0.30;;;9.80;99.90;;;;;;5091565;28;20285;-74
2023/12/24 04:43:54;;;;;;;0.50;0.33;;;9.90;99.90;;;;;;5091590;28;20201;-75
2023/12/24 04:46:19;;;;;;;0.63;0.30;;;9.90;99.90;;;;;;5090898;28;20601;-75
2023/12/24 04:48:45;;;;;;;0.80;0.57;;;9.80;99.90;;;;;;5091490;28;20181;-75
2023/12/24 04:51:11;;;;;;;1.37;0.30;;;9.80;99.90;;;;;;5091301;28;20278;-73
2023/12/24 04:53:37;;;;;;;3.53;0.50;;;9.80;99.90;;;;;;5091430;28;20266;-75
2023/12/24 04:56:03;;;;;;;0.30;0.30;;;9.80;99.90;;;;;;5091983;28;20174;-75
2023/12/24 04:58:28;;;;;;;0.80;0.40;;;9.80;99.90;;;;;;5091356;28;20178;-75
2023/12/24 05:00:54;;;;;;;0.57;0.40;;;9.80;99.90;;;;;;5092564;28;20243;-75
2023/12/24 05:03:19;;;;;;;2.73;0.80;;;9.80;99.90;;;;;;5091204;28;20186;-74
2023/12/24 05:05:45;;;;;;;2.03;0.40;;;9.80;99.90;;;;;;5090552;28;20178;-75
2023/12/24 05:08:10;;;;;;;0.57;0.47;;;9.90;99.90;;;;;;5092239;28;20214;-75
2023/12/24 05:10:36;;;;;;;2.47;0.53;;;9.90;99.90;;;;;;5092563;28;20233;-76
2023/12/24 05:13:01;;;;;;;0.73;0.50;;;9.80;99.90;;;;;;5092387;28;20198;-75
2023/12/24 05:15:27;;;;;;;0.53;0.47;;;9.90;99.90;;;;;;5091053;28;20198;-75
2023/12/24 05:17:52;;;;;;;0.30;0.30;;;9.80;99.90;;;;;;5090365;28;20364;-74
2023/12/24 05:20:18;;;;;;;0.70;0.40;;;9.80;99.90;;;;;;5090925;28;20181;-75
2023/12/24 05:22:45;;;;;;;1.63;0.40;;;9.80;99.90;;;;;;5092311;28;20526;-75
2023/12/24 05:25:10;;;;;;;1.30;0.47;;;9.80;99.90;;;;;;5091034;28;20197;-75
2023/12/24 05:27:36;;;;;;;0.40;0.40;;;9.80;99.90;;;;;;5091493;28;20206;-75
2023/12/24 05:30:01;;;;;;;0.97;0.40;;;9.80;99.90;;;;;;5090883;28;20189;-74
2023/12/24 05:32:27;;;;;;;0.80;0.40;;;9.80;99.90;;;;;;5091992;28;20202;-74
2023/12/24 05:34:53;;;;;;;2.40;0.30;;;9.80;99.90;;;;;;5092230;28;20205;-75
2023/12/24 05:37:18;;;;;;;0.20;0.20;;;9.80;99.90;;;;;;5090212;28;20212;-75
2023/12/24 05:39:44;;;;;;;0.30;0.30;;;9.80;99.90;;;;;;5092147;28;20170;-76
2023/12/24 05:42:09;;;;;;;1.53;0.43;;;9.80;99.90;;;;;;5092086;28;20220;-75
2023/12/24 05:44:35;;;;;;;0.30;0.30;;;9.80;99.90;;;;;;5090760;28;20626;-75
2023/12/24 05:47:01;;;;;;;0.40;0.30;;;9.80;99.90;;;;;;5091151;28;20277;-75
2023/12/24 05:49:27;;;;;;;0.30;0.30;;;9.80;99.90;;;;;;5090931;28;20255;-75
2023/12/24 05:51:53;;;;;;;0.30;0.30;;;9.80;99.90;;;;;;5091644;28;20474;-75
2023/12/24 05:54:19;;;;;;;0.40;0.40;;;9.70;99.90;;;;;;5092266;28;20646;-75
2023/12/24 05:56:45;;;;;;;0.33;0.33;;;9.80;99.90;;;;;;5090913;28;20204;-75
2023/12/24 05:59:10;;;;;;;0.33;0.33;;;9.80;99.90;;;;;;5090858;28;20171;-75
2023/12/24 06:01:36;;;;;;;0.87;0.33;;;9.80;99.90;;;;;;5091947;28;20542;-74
2023/12/24 06:04:02;;;;;;;0.50;0.40;;;9.80;99.90;;;;;;5091209;28;20185;-74
2023/12/24 06:06:28;;;;;;;0.40;0.40;;;9.80;99.90;;;;;;5091949;28;20261;-74
2023/12/24 06:08:53;;;;;;;2.77;0.70;;;9.80;99.90;;;;;;5091909;28;20249;-74
2023/12/24 06:11:19;;;;;;;0.37;0.37;;;9.80;99.90;;;;;;5092046;28;20210;-74
2023/12/24 06:13:45;;;;;;;0.57;0.40;;;9.80;99.90;;;;;;5091133;28;20182;-75
2023/12/24 06:16:12;;;;;;;2.13;0.60;;;9.90;99.90;;;;;;5092096;28;20167;-74
2023/12/24 06:18:39;;;;;;;0.50;0.50;;;9.80;99.90;;;;;;5092870;28;20166;-75
2023/12/24 06:21:05;;;;;;;0.40;0.40;;;9.80;99.90;;;;;;5094307;28;20222;-74
2023/12/24 06:23:32;;;;;;;0.47;0.47;;;9.90;99.90;;;;;;5093670;28;20213;-74
2023/12/24 06:25:58;;;;;;;2.27;0.60;;;9.90;99.90;;;;;;5094279;28;20174;-74
2023/12/24 06:28:24;;;;;;;2.03;0.70;;;9.90;99.90;;;;;;5095545;28;20216;-75
2023/12/24 06:30:49;;;;;;;0.60;0.50;;;9.90;99.90;;;;;;5094174;28;20569;-74
2023/12/24 06:33:15;;;;;;;0.60;0.60;;;9.90;99.90;;;;;;5094647;28;20292;-74
2023/12/24 06:35:40;;;;;;;1.33;0.60;;;9.90;99.90;;;;;;5094137;28;20182;-74
2023/12/24 06:38:06;;;;;;;0.50;0.50;;;9.90;99.90;;;;;;5095358;28;20178;-74
2023/12/24 06:40:34;;;;;;;0.50;0.50;;;9.90;99.90;;;;;;5095372;28;20497;-75
2023/12/24 06:42:59;;;;;;;0.57;0.53;;;9.90;99.90;;;;;;5094185;28;20331;-75
2023/12/24 06:45:25;;;;;;;1.27;0.47;;;9.90;99.90;;;;;;5092710;28;20697;-74
2023/12/24 06:47:50;;;;;;;0.67;0.50;;;9.90;99.90;;;;;;5092376;28;20227;-75
2023/12/24 06:50:17;;;;;;;0.90;0.60;;;9.90;99.90;;;;;;5093958;28;20189;-75
2023/12/24 06:52:43;;;;;;;1.13;0.60;;;9.90;99.90;;;;;;5093172;28;20656;-74
2023/12/24 06:55:08;;;;;;;1.70;0.63;;;9.90;99.90;;;;;;5095043;28;20166;-74
2023/12/24 06:57:34;;;;;;;0.73;0.50;;;9.90;99.90;;;;;;5093633;28;20162;-75
2023/12/24 06:59:59;;;;;;;0.77;0.53;;;9.90;99.90;;;;;;5094170;28;20253;-76
2023/12/24 07:02:25;;;;;;;0.50;0.50;;;9.90;99.90;;;;;;5094858;28;20234;-75
2023/12/24 07:04:51;;;;;;;0.67;0.50;;;9.90;99.90;;;;;;5094814;28;20227;-75
2023/12/24 07:07:16;;;;;;;1.30;0.50;;;9.90;99.90;;;;;;5094828;28;20220;-74
2023/12/24 07:09:42;;;;;;;0.73;0.57;;;9.90;99.90;;;;;;5094747;28;20579;-75
2023/12/24 07:12:08;;;;;;;1.80;0.57;;;9.90;99.90;;;;;;5092333;28;20275;-74
2023/12/24 07:14:33;;;;;;;0.40;0.40;;;10.00;99.90;;;;;;5093372;28;20277;-75
2023/12/24 07:16:59;;;;;;;0.80;0.53;;;10.00;99.90;;;;;;5094601;28;20162;-75
2023/12/24 07:19:24;;;;;;;0.40;0.30;;;10.10;99.90;;;;;;5094793;28;20170;-75
2023/12/24 07:21:50;;;;;;;0.60;0.30;;;10.00;99.90;;;;;;5093709;28;20577;-75
2023/12/24 07:24:15;;;;;;;0.93;0.40;;;10.00;99.90;;;;;;5094688;28;20182;-75
2023/12/24 07:26:41;;;;;;;0.90;0.50;;;10.10;99.90;;;;;;5094845;28;20174;-75
2023/12/24 07:29:06;;;;;;;0.73;0.50;;;10.10;99.90;;;;;;5094454;28;20180;-72
2023/12/24 07:31:32;;;;;;;1.50;0.60;;;10.10;99.90;;;;;;5093311;28;20198;-77
2023/12/24 07:33:57;;;;;;;0.50;0.50;;;10.10;99.90;;;;;;5093138;28;20615;-75
2023/12/24 07:36:23;;;;;;;0.93;0.40;;;10.10;99.90;;;;;;5092901;28;20186;-74
2023/12/24 07:38:49;;;;;;;0.53;0.43;;;10.10;99.90;;;;;;5092816;28;20178;-75
2023/12/24 07:41:14;;;;;;;0.43;0.40;;;10.10;99.90;;;;;;5093323;28;20219;-74
2023/12/24 07:43:40;;;;;;;1.03;0.40;;;10.20;99.90;;;;;;5092883;28;20512;-75
2023/12/24 07:46:06;;;;;;;0.60;0.50;;;10.10;99.90;;;;;;5092716;28;20590;-75
2023/12/24 07:48:31;;;;;;;1.03;0.40;;;10.20;99.90;;;;;;5092635;28;20538;-75
2023/12/24 07:50:57;;;;;;;0.73;0.50;;;10.20;99.90;;;;;;5093154;28;20212;-75
2023/12/24 07:53:22;;;;;;;1.93;0.50;;;10.20;99.90;;;;;;5093975;28;20199;-77
2023/12/24 07:55:48;;;;;;;1.53;0.40;;;10.20;99.90;;;;;;5092595;28;20693;-74
2023/12/24 07:58:13;;;;;;;1.83;0.70;;;10.30;99.90;;;;;;5094034;28;20220;-75
2023/12/24 08:00:39;;;;;;;0.97;0.60;;;10.30;99.90;;;;;;5092981;28;20234;-74
2023/12/24 08:03:04;;;;;;;1.60;0.50;;;10.30;99.90;;;;;;5093610;28;20174;-75
2023/12/24 08:05:30;;;;;;;1.43;0.50;;;10.40;99.90;;;;;;5092361;28;20641;-73
2023/12/24 08:07:55;;;;;;;0.30;0.30;;;10.40;99.90;;;;;;5094262;28;20237;-75
2023/12/24 08:10:21;;;;;;;0.57;0.50;;;10.40;99.90;;;;;;5091674;28;20265;-74
2023/12/24 08:12:47;;;;;;;1.03;0.40;;;10.40;99.90;;;;;;5092812;28;20200;-74
2023/12/24 08:15:13;;;;;;;0.60;0.60;;;10.40;99.90;;;;;;5092177;28;20261;-74
2023/12/24 08:17:43;;;;;;;1.17;0.50;;;10.40;99.90;;;;;;5091734;28;20178;-74
2023/12/24 08:20:09;;;;;;;0.43;0.43;;;10.40;99.90;;;;;;5093639;28;20541;-74
2023/12/24 08:22:36;;;;;;;0.90;0.70;;;10.50;99.90;;;;;;5092053;28;20174;-75
2023/12/24 08:25:02;;;;;;;0.50;0.50;;;10.40;99.90;;;;;;5091959;28;20257;-75
2023/12/24 08:27:27;;;;;;;0.50;0.50;;;10.40;99.90;;;;;;5092444;28;20700;-74
2023/12/24 08:29:53;;;;;;;0.80;0.53;;;10.40;99.90;;;;;;5093438;28;20181;-75
2023/12/24 08:32:19;;;;;;;0.83;0.50;;;10.40;99.90;;;;;;5093167;28;20697;-75
2023/12/24 08:34:44;;;;;;;1.20;0.50;;;10.40;99.90;;;;;;5093090;28;20166;-74
2023/12/24 08:37:10;;;;;;;0.97;0.60;;;10.40;99.90;;;;;;5092583;28;20186;-80
2023/12/24 08:39:35;;;;;;;1.90;0.50;;;10.40;99.90;;;;;;5091437;28;20200;-75
2023/12/24 08:42:01;;;;;;;1.03;0.50;;;10.40;99.90;;;;;;5092363;28;20205;-76
2023/12/24 08:44:27;;;;;;;1.90;0.63;;;10.40;99.90;;;;;;5091648;28;20178;-76
2023/12/24 08:46:52;;;;;;;0.60;0.60;;;10.40;99.90;;;;;;5090287;28;20186;-76
2023/12/24 08:49:18;;;;;;;1.80;0.77;;;10.40;99.90;;;;;;5092789;28;20174;-75
2023/12/24 08:51:43;;;;;;;1.93;0.70;;;10.40;99.90;;;;;;5092664;28;20206;-76
2023/12/24 08:54:09;;;;;;;0.70;0.53;;;10.50;99.90;;;;;;5091442;28;20167;-76
2023/12/24 08:56:35;;;;;;;0.77;0.60;;;10.40;99.90;;;;;;5091215;28;20235;-76
2023/12/24 08:59:02;;;;;;;1.03;0.47;;;10.30;99.90;;;;;;5091423;28;20170;-77
2023/12/24 09:01:27;;;;;;;1.43;0.77;;;10.40;99.90;;;;;;5092674;28;20209;-77
2023/12/24 09:03:53;;;;;;;0.40;0.40;;;10.40;99.90;;;;;;5091273;28;20598;-76
2023/12/24 09:06:18;;;;;;;0.60;0.40;;;10.40;99.90;;;;;;5090589;28;20174;-74
2023/12/24 09:08:44;;;;;;;0.50;0.33;;;10.50;99.90;;;;;;5092592;28;20178;-76
2023/12/24 09:11:09;;;;;;;1.37;0.40;;;10.40;99.90;;;;;;5092416;28;20242;-76
2023/12/24 09:13:35;;;;;;;0.40;0.37;;;10.40;99.90;;;;;;5092883;28;20276;-76
2023/12/24 09:16:00;;;;;;;0.37;0.30;;;10.30;99.90;;;;;;5091769;28;20184;-77
2023/12/24 09:18:26;;;;;;;0.30;0.30;;;10.40;99.90;;;;;;5092510;28;20253;-77
2023/12/24 09:20:51;;;;;;;0.33;0.30;;;10.40;99.90;;;;;;5091089;28;20194;-76
2023/12/24 09:23:18;;;;;;;0.30;0.30;;;10.40;99.90;;;;;;5090939;28;20178;-77
2023/12/24 09:25:43;;;;;;;0.60;0.30;;;10.50;99.90;;;;;;5092544;28;20178;-76
2023/12/24 09:28:09;;;;;;;0.80;0.40;;;10.40;99.90;;;;;;5092406;28;20191;-76
2023/12/24 09:30:34;;;;;;;0.50;0.30;;;10.50;99.90;;;;;;5092221;28;20292;-75
2023/12/24 09:33:00;;;;;;;0.50;0.40;;;10.50;99.90;;;;;;5085220;28;20211;-76
2023/12/24 09:35:27;;;;;;;0.93;0.30;;;10.50;99.90;;;;;;5072195;28;20254;-75
2023/12/24 09:37:52;;;;;;;3.40;0.50;;;10.50;99.90;;;;;;5072154;28;20163;-76
2023/12/24 09:40:18;;;;;;;0.50;0.43;;;10.50;99.90;;;;;;5072011;28;20181;-75
2023/12/24 09:42:44;;;;;;;0.57;0.53;;;10.50;99.90;;;;;;5074167;28;20197;-75
2023/12/24 09:45:09;;;;;;;1.37;0.40;;;10.50;99.90;;;;;;5090914;28;20178;-76
2023/12/24 09:47:35;;;;;;;0.67;0.43;;;10.60;99.90;;;;;;5092155;28;20610;-76
2023/12/24 09:50:00;;;;;;;0.53;0.47;;;10.50;99.90;;;;;;5090764;28;20186;-76
2023/12/24 09:52:26;;;;;;;0.70;0.40;;;10.50;99.90;;;;;;5091582;28;20623;-77
2023/12/24 09:54:52;;;;;;;0.80;0.47;;;10.50;99.90;;;;;;5094987;28;20166;-76
2023/12/24 09:57:18;;;;;;;0.60;0.50;;;10.60;99.90;;;;;;5096098;28;20174;-76
2023/12/24 09:59:43;;;;;;;1.00;0.50;;;10.60;99.90;;;;;;5096106;28;20175;-76
2023/12/24 10:02:09;;;;;;;0.40;0.40;;;10.60;99.90;;;;;;5095989;28;20221;-77
2023/12/24 10:04:34;;;;;;;1.10;0.50;;;10.60;99.90;;;;;;5095307;28;20194;-76
2023/12/24 10:07:00;;;;;;;1.13;0.40;;;10.60;99.90;;;;;;5094491;28;20646;-76
2023/12/24 10:09:43;;;;;;;3.80;0.50;;;10.60;99.90;;;;;;5095931;28;20258;-75
2023/12/24 10:12:12;;;;;;;1.43;0.50;;;10.70;99.90;;;;;;5095885;28;20286;-76
2023/12/24 10:14:42;;;;;;;0.93;0.50;;;10.70;99.90;;;;;;5095062;28;20186;-76
2023/12/24 10:17:08;;;;;;;1.63;0.53;;;10.70;99.90;;;;;;5094480;28;20277;-76
2023/12/24 10:19:37;;;;;;;1.13;0.47;;;10.80;99.90;;;;;;5094445;28;20261;-75
2023/12/24 10:22:06;;;;;;;0.87;0.50;;;10.80;99.90;;;;;;5095863;28;20191;-76
2023/12/24 10:24:37;;;;;;;2.10;0.57;;;10.80;99.90;;;;;;5094995;28;20265;-75
2023/12/24 10:27:14;;;;;;;6.03;0.60;;;10.80;99.90;;;;;;5094510;28;20201;-76
2023/12/24 10:29:41;;;;;;;0.70;0.50;;;10.80;99.90;;;;;;5094273;28;20174;-74
2023/12/24 10:32:10;;;;;;;1.27;0.40;;;10.80;99.90;;;;;;5095345;28;20756;-75
2023/12/24 10:34:37;;;;;;;0.40;0.40;;;10.90;99.90;;;;;;5094872;28;20179;-76
2023/12/24 10:37:18;;;;;;;1.37;0.57;;;10.90;99.90;;;;;;5095714;28;20170;-76
2023/12/24 10:39:44;;;;;;;1.00;0.50;;;10.80;99.90;;;;;;5095399;28;20178;-76
2023/12/24 10:42:10;;;;;;;1.43;0.47;;;10.90;99.90;;;;;;5095278;28;20197;-75
2023/12/24 10:44:36;;;;;;;0.73;0.60;;;10.90;99.90;;;;;;5094554;28;20231;-76
2023/12/24 10:47:03;;;;;;;4.43;0.70;;;10.90;99.90;;;;;;5095360;28;20167;-74
2023/12/24 10:49:31;;;;;;;1.17;0.50;;;10.90;99.90;;;;;;5093784;28;20238;-76
2023/12/24 10:51:59;;;;;;;0.30;0.30;;;10.90;99.90;;;;;;5094947;28;20509;-76
2023/12/24 10:54:26;;;;;;;0.47;0.40;;;11.00;99.90;;;;;;5093214;28;20182;-76
2023/12/24 10:57:12;;;;;;;1.27;0.60;;;11.00;99.90;;;;;;5095120;28;20312;-76
2023/12/24 10:59:56;;;;;;;1.73;0.50;;;10.90;99.90;;;;;;5095206;28;20530;-75
2023/12/24 11:02:22;;;;;;;1.00;0.50;;;11.00;99.90;;;;;;5094810;28;20194;-76
2023/12/24 11:04:48;;;;;;;1.73;0.50;;;11.00;99.90;;;;;;5093685;28;20186;-76
2023/12/24 11:07:38;;;;;;;2.30;0.53;;;11.00;99.90;;;;;;5094741;28;20625;-75
2023/12/24 11:10:05;;;;;;;0.80;0.50;;;11.10;99.90;;;;;;5094795;28;20162;-75
2023/12/24 11:12:32;;;;;;;3.53;0.57;;;11.10;99.90;;;;;;5093426;28;20677;-76
2023/12/24 11:15:02;;;;;;;0.80;0.60;;;11.10;99.90;;;;;;5093269;28;20365;-76
2023/12/24 11:17:34;;;;;;;1.27;0.47;;;11.10;99.90;;;;;;5093288;28;20594;-75
2023/12/24 11:20:20;;;;;;;1.33;0.50;;;11.10;99.90;;;;;;5094507;28;20253;-75
2023/12/24 11:23:04;;;;;;;1.70;0.77;;;11.10;99.90;;;;;;5093491;28;20177;-77
2023/12/24 11:25:40;;;;;;;1.53;0.60;;;11.10;99.90;;;;;;5092707;28;20240;-76
2023/12/24 11:28:35;;;;;;;5.00;0.93;;;11.10;99.90;;;;;;5094481;28;20260;-75
2023/12/24 11:31:02;;;;;;;2.73;0.80;;;11.10;99.90;;;;;;5093016;28;20190;-76
2023/12/24 11:33:36;;;;;;;3.30;0.90;;;11.10;99.90;;;;;;5092188;28;20289;-76
2023/12/24 11:36:08;;;;;;;0.87;0.70;;;11.10;99.90;;;;;;5092704;28;20182;-75
2023/12/24 11:38:34;;;;;;;1.63;0.90;;;11.10;99.90;;;;;;5093199;28;20170;-75
2023/12/24 11:41:19;;;;;;;0.93;0.70;;;11.10;99.90;;;;;;5092760;28;20597;-76
2023/12/24 11:43:53;;;;;;;2.90;0.73;;;11.10;99.90;;;;;;5092344;28;20348;-76
2023/12/24 11:46:19;;;;;;;2.53;0.90;;;11.10;99.90;;;;;;5093891;28;20285;-75
2023/12/24 11:48:44;;;;;;;2.50;0.90;;;11.10;99.90;;;;;;5094255;28;20219;-75
2023/12/24 11:51:11;;;;;;;1.37;1.00;;;11.10;99.90;;;;;;5093897;28;20285;-76
2023/12/24 11:53:38;;;;;;;2.93;1.10;;;11.10;99.90;;;;;;5092602;28;20581;-74
2023/12/24 11:56:13;;;;;;;3.57;1.10;;;11.10;99.90;;;;;;5091772;28;20174;-76
2023/12/24 11:58:40;;;;;;;2.63;1.03;;;11.10;99.90;;;;;;5092527;28;20629;-76
2023/12/24 12:01:06;;;;;;;1.90;0.97;;;11.20;99.90;;;;;;5092475;28;20194;-76
2023/12/24 12:03:34;;;;;;;2.53;1.40;;;11.20;99.90;;;;;;5092386;28;20284;-76
2023/12/24 12:06:00;;;;;;;3.73;1.40;;;11.20;99.90;;;;;;5090996;28;20178;-75
2023/12/24 12:08:30;;;;;;;2.67;1.23;;;11.20;99.90;;;;;;5093118;28;20672;-76
2023/12/24 12:10:56;;;;;;;3.30;1.00;;;11.20;99.90;;;;;;5093576;28;20190;-75
2023/12/24 12:13:22;;;;;;;1.80;1.10;;;11.30;99.90;;;;;;5093515;28;20190;-76
2023/12/24 12:15:48;;;;;;;1.43;1.20;;;11.30;99.90;;;;;;5092362;28;20174;-76
2023/12/24 12:18:14;;;;;;;2.63;1.23;;;11.30;99.90;;;;;;5093190;28;20178;-76
2023/12/24 12:20:41;;;;;;;2.30;1.10;;;11.30;99.90;;;;;;5093327;28;20185;-76
2023/12/24 12:23:07;;;;;;;1.53;1.30;;;11.30;99.90;;;;;;5092263;28;20465;-76
2023/12/24 12:25:32;;;;;;;3.73;1.20;;;11.30;99.90;;;;;;5091710;28;20255;-74
2023/12/24 12:27:58;;;;;;;3.00;1.10;;;11.30;99.90;;;;;;5091969;28;20550;-76
2023/12/24 12:30:23;;;;;;;3.23;1.07;;;11.30;99.90;;;;;;5091820;28;20671;-76
2023/12/24 12:32:49;;;;;;;1.67;1.00;;;11.30;99.90;;;;;;5091549;28;20297;-76
2023/12/24 12:35:15;;;;;;;3.23;1.10;;;11.20;99.90;;;;;;5093139;28;20253;-76
2023/12/24 12:37:41;;;;;;;2.90;1.13;;;11.30;99.90;;;;;;5092376;28;20186;-76
2023/12/24 12:40:08;;;;;;;1.57;0.80;;;11.30;99.90;;;;;;5093064;28;20177;-77
2023/12/24 12:42:35;;;;;;;1.77;1.00;;;11.20;99.90;;;;;;5092948;28;20179;-76
2023/12/24 12:45:00;;;;;;;2.50;0.80;;;11.30;99.90;;;;;;5092926;28;20170;-76
2023/12/24 12:47:26;;;;;;;1.20;0.63;;;11.20;99.90;;;;;;5092301;28;20197;-74
2023/12/24 12:49:52;;;;;;;1.03;0.60;;;11.20;99.90;;;;;;5092854;28;20174;-75